Bradford, Canada
Current Conditions -  °F | °C
As of 12:00 PM on Friday 28 Nov 2014 (Local Time) from CYBN Reporting Station
Clear Clear  
Wind Chill: 14°   Ceiling: Unl
Heat Index: 23°   Visibility: 9mi
Dew Point: 12°   Wind: 8mph
Humidity: 63%   Direction: 280°W
Pressure: 30.2"   Gusts: NA
Location:  44.12°N, 79.57°W
Report Text: CYBN 281700Z AUTO 28007KT 250V320 9SM CLR M05/M11 A3020 RMKSLP241
Loading
Personal Weather Stations






























Interactive Weather Map New forecast layout! Learn more

10-Day Weather Forecast

Advertisements
Track Severe Weather on mobile